createdAt,value
2022-12-20T00:00:30.093Z,50.908154
2022-12-20T00:01:29.108Z,50.908104
2022-12-20T00:02:29.168Z,50.908142
2022-12-20T00:03:29.037Z,50.908123
2022-12-20T00:04:29.030Z,50.908131
2022-12-20T00:05:29.040Z,50.908180
2022-12-20T00:06:29.014Z,50.908138
2022-12-20T00:07:29.029Z,50.908112
2022-12-20T00:08:28.995Z,50.908138
2022-12-20T00:09:28.992Z,50.908115
2022-12-20T00:10:28.982Z,50.908146
2022-12-20T00:11:28.978Z,50.908112
2022-12-20T00:12:28.990Z,50.908146
2022-12-20T00:13:28.971Z,50.908119
2022-12-20T00:14:28.949Z,50.908100
2022-12-20T00:15:28.941Z,50.908127
2022-12-20T00:16:28.949Z,50.908096
2022-12-20T00:17:29.297Z,50.908092
2022-12-20T00:18:28.918Z,50.908108
2022-12-20T00:19:28.915Z,50.908100
2022-12-20T00:20:28.926Z,50.908100
2022-12-20T00:21:28.901Z,50.908142
2022-12-20T00:22:28.912Z,50.908165
2022-12-20T00:23:28.880Z,50.908119
2022-12-20T00:24:28.886Z,50.908123
2022-12-20T00:25:28.871Z,50.908104
2022-12-20T00:26:28.860Z,50.908154
2022-12-20T00:27:28.888Z,50.908142
2022-12-20T00:28:28.844Z,50.908134
2022-12-20T00:29:28.834Z,50.908131
2022-12-20T00:30:28.823Z,50.908138
2022-12-20T00:31:28.868Z,50.908123
2022-12-20T00:32:28.842Z,50.908119
2022-12-20T00:33:28.820Z,50.908119
2022-12-20T00:34:28.799Z,50.908161
2022-12-20T00:35:28.788Z,50.908154
2022-12-20T00:36:28.794Z,50.908104
2022-12-20T00:37:28.796Z,50.908112
2022-12-20T00:38:28.782Z,50.908134
2022-12-20T00:39:28.759Z,50.908131
2022-12-20T00:40:28.747Z,50.908123
2022-12-20T00:41:28.744Z,50.908127
2022-12-20T00:42:28.766Z,50.908134
2022-12-20T00:43:28.730Z,50.908138
2022-12-20T00:44:28.721Z,50.908154
2022-12-20T00:45:28.712Z,50.908142
2022-12-20T00:46:28.745Z,50.908131
2022-12-20T00:47:28.723Z,50.908108
2022-12-20T00:48:28.699Z,50.908119
2022-12-20T00:49:28.685Z,50.908115
2022-12-20T00:50:28.672Z,50.908134
2022-12-20T00:51:28.664Z,50.908146
2022-12-20T00:52:28.683Z,50.908115
2022-12-20T00:53:28.653Z,50.908081
2022-12-20T00:54:28.641Z,50.908161
2022-12-20T00:55:29.636Z,50.908161
2022-12-20T00:56:28.626Z,50.908150
2022-12-20T00:57:28.663Z,50.908123
2022-12-20T00:58:28.627Z,50.908123
2022-12-20T00:59:28.604Z,50.908127
2022-12-20T01:00:28.598Z,50.908127
2022-12-20T01:01:28.671Z,50.908146
2022-12-20T01:02:28.776Z,50.908169
2022-12-20T01:03:28.740Z,50.908146
2022-12-20T01:04:28.572Z,50.908123
2022-12-20T01:05:28.557Z,50.908138
2022-12-20T01:06:28.558Z,50.908142
2022-12-20T01:07:28.575Z,50.908150
2022-12-20T01:08:28.540Z,50.908142
2022-12-20T01:09:28.534Z,50.908138
2022-12-20T01:10:28.523Z,50.908131
2022-12-20T01:11:28.510Z,50.908123
2022-12-20T01:12:28.525Z,50.908112
2022-12-20T01:13:28.493Z,50.908123
2022-12-20T01:14:28.486Z,50.908142
2022-12-20T01:15:28.483Z,50.908131
2022-12-20T01:16:28.540Z,50.908127
2022-12-20T01:17:28.791Z,50.908138
2022-12-20T01:18:28.454Z,50.908188
2022-12-20T01:19:28.443Z,50.908096
2022-12-20T01:20:28.443Z,50.908115
2022-12-20T01:21:28.428Z,50.908157
2022-12-20T01:22:28.461Z,50.908146
2022-12-20T01:23:28.420Z,50.908150
2022-12-20T01:24:28.412Z,50.908154
2022-12-20T01:25:28.401Z,50.908115
2022-12-20T01:26:28.397Z,50.908104
2022-12-20T01:27:28.422Z,50.908119
2022-12-20T01:28:28.395Z,50.908127
2022-12-20T01:29:28.369Z,50.908142
2022-12-20T01:30:28.366Z,50.908127
2022-12-20T01:31:28.453Z,50.908115
2022-12-20T01:32:28.347Z,50.908127
2022-12-20T01:33:28.384Z,50.908138
2022-12-20T01:34:28.343Z,50.908134
2022-12-20T01:35:28.320Z,50.908123
2022-12-20T01:36:28.316Z,50.908161
2022-12-20T01:37:28.320Z,50.908157
2022-12-20T01:38:28.338Z,50.908127
2022-12-20T01:39:28.293Z,50.908154
2022-12-20T01:40:28.290Z,50.908108
2022-12-20T01:41:28.294Z,50.908157
2022-12-20T01:42:28.271Z,50.908173
2022-12-20T01:43:28.291Z,50.908154
2022-12-20T01:44:28.266Z,50.908142
2022-12-20T01:45:28.335Z,50.908173
2022-12-20T01:46:28.338Z,50.908157
2022-12-20T01:47:28.239Z,50.908127
2022-12-20T01:48:28.255Z,50.908081
2022-12-20T01:49:28.217Z,50.908134
2022-12-20T01:50:28.216Z,50.908161
2022-12-20T01:51:28.201Z,50.908119
2022-12-20T01:52:28.190Z,50.908119
2022-12-20T01:53:28.203Z,50.908112
2022-12-20T01:54:28.194Z,50.908131
2022-12-20T01:55:28.162Z,50.908096
2022-12-20T01:56:28.159Z,50.908073
2022-12-20T01:57:28.148Z,50.908119
2022-12-20T01:58:28.164Z,50.908115
2022-12-20T01:59:29.141Z,50.908073
2022-12-20T02:00:28.136Z,50.908089
2022-12-20T02:01:28.179Z,50.908154
2022-12-20T02:02:28.168Z,50.908150
2022-12-20T02:03:28.193Z,50.908142
2022-12-20T02:04:28.102Z,50.908047
2022-12-20T02:05:28.089Z,50.908054
2022-12-20T02:06:28.077Z,50.908119
2022-12-20T02:07:28.072Z,50.908138
2022-12-20T02:08:28.071Z,50.908096
2022-12-20T02:09:28.083Z,50.908051
2022-12-20T02:10:28.048Z,50.908012
2022-12-20T02:11:28.038Z,50.908043
2022-12-20T02:12:28.030Z,50.908058
2022-12-20T02:13:28.024Z,50.908077
2022-12-20T02:14:28.044Z,50.908070
2022-12-20T02:15:28.013Z,50.908054
2022-12-20T02:16:28.040Z,50.908073
2022-12-20T02:17:27.996Z,50.908054
2022-12-20T02:18:27.991Z,50.908054
2022-12-20T02:19:28.009Z,50.908092
2022-12-20T02:20:27.971Z,50.908081
2022-12-20T02:21:27.965Z,50.908092
2022-12-20T02:22:27.956Z,50.908085
2022-12-20T02:23:27.954Z,50.908058
2022-12-20T02:24:27.967Z,50.908089
2022-12-20T02:25:27.938Z,50.908062
2022-12-20T02:26:27.928Z,50.908119
2022-12-20T02:27:27.919Z,50.908142
2022-12-20T02:28:27.916Z,50.908112
2022-12-20T02:29:27.920Z,50.908104
2022-12-20T02:30:27.897Z,50.908150
2022-12-20T02:31:27.950Z,50.908142
2022-12-20T02:32:27.880Z,50.908108
2022-12-20T02:33:27.873Z,50.908092
2022-12-20T02:34:27.895Z,50.908070
2022-12-20T02:35:27.863Z,50.908051
2022-12-20T02:36:27.848Z,50.908066
2022-12-20T02:37:27.837Z,50.908165
2022-12-20T02:38:27.827Z,50.908127
2022-12-20T02:39:27.854Z,50.908123
2022-12-20T02:40:27.810Z,50.908134
2022-12-20T02:41:27.817Z,50.908108
2022-12-20T02:42:27.795Z,50.908108
2022-12-20T02:43:27.790Z,50.908085
2022-12-20T02:44:27.823Z,50.908108
2022-12-20T02:45:27.777Z,50.908112
2022-12-20T02:46:27.933Z,50.908138
2022-12-20T02:47:27.769Z,50.908104
2022-12-20T02:48:27.750Z,50.908119
2022-12-20T02:49:27.748Z,50.908123
2022-12-20T02:50:27.759Z,50.908115
2022-12-20T02:51:27.731Z,50.908070
2022-12-20T02:52:27.733Z,50.908092
2022-12-20T02:53:27.715Z,50.908100
2022-12-20T02:54:27.714Z,50.908100
2022-12-20T02:55:27.723Z,50.908127
2022-12-20T02:56:27.688Z,50.908123
2022-12-20T02:57:27.694Z,50.908138
2022-12-20T02:58:27.674Z,50.908150
2022-12-20T02:59:27.662Z,50.908146
2022-12-20T03:00:27.688Z,50.908154
2022-12-20T03:01:27.768Z,50.908138
2022-12-20T03:02:27.814Z,50.908112
2022-12-20T03:03:27.724Z,50.908142
2022-12-20T03:04:27.626Z,50.908245
2022-12-20T03:05:27.661Z,50.908146
2022-12-20T03:06:27.609Z,50.908108
2022-12-20T03:07:27.605Z,50.908115
2022-12-20T03:08:27.595Z,50.908104
2022-12-20T03:09:27.598Z,50.908077
2022-12-20T03:10:27.596Z,50.908134
2022-12-20T03:11:27.605Z,50.908169
2022-12-20T03:12:27.583Z,50.908134
2022-12-20T03:13:27.562Z,50.908138
2022-12-20T03:14:27.560Z,50.908134
2022-12-20T03:15:27.543Z,50.908131
2022-12-20T03:16:27.616Z,50.908142
2022-12-20T03:17:27.540Z,50.908134
2022-12-20T03:18:27.530Z,50.908180
2022-12-20T03:19:27.511Z,50.908176
2022-12-20T03:20:27.505Z,50.908142
2022-12-20T03:21:27.520Z,50.908169
2022-12-20T03:22:27.488Z,50.908169
2022-12-20T03:23:27.478Z,50.908199
2022-12-20T03:24:27.476Z,50.908234
2022-12-20T03:25:27.484Z,50.908112
2022-12-20T03:26:27.479Z,50.908188
2022-12-20T03:27:27.447Z,50.908092
2022-12-20T03:28:27.439Z,50.908089
2022-12-20T03:29:27.429Z,50.908077
2022-12-20T03:30:27.420Z,50.908035
2022-12-20T03:31:27.516Z,50.908066
2022-12-20T03:32:27.408Z,50.908112
2022-12-20T03:33:27.395Z,50.908142
2022-12-20T03:34:27.394Z,50.908043
2022-12-20T03:35:27.382Z,50.908081
2022-12-20T03:36:27.408Z,50.908092
2022-12-20T03:37:27.369Z,50.907780
2022-12-20T03:38:27.352Z,50.907833
2022-12-20T03:39:27.350Z,50.907993
2022-12-20T03:40:27.349Z,50.908035
2022-12-20T03:41:27.368Z,50.908070
2022-12-20T03:42:27.328Z,50.908131
2022-12-20T03:43:27.317Z,50.908173
2022-12-20T03:44:27.392Z,50.908131
2022-12-20T03:45:27.306Z,50.908123
2022-12-20T03:46:27.389Z,50.908092
2022-12-20T03:47:27.304Z,50.908173
2022-12-20T03:48:27.282Z,50.908302
2022-12-20T03:49:27.286Z,50.908405
2022-12-20T03:50:27.268Z,50.908253
2022-12-20T03:51:27.292Z,50.908157
2022-12-20T03:52:27.245Z,50.908100
2022-12-20T03:53:27.235Z,50.908131
2022-12-20T03:54:27.243Z,50.908138
2022-12-20T03:55:27.225Z,50.908123
2022-12-20T03:56:27.239Z,50.908096
2022-12-20T03:57:27.212Z,50.908157
2022-12-20T03:58:27.203Z,50.908142
2022-12-20T03:59:27.213Z,50.908089
2022-12-20T04:00:27.185Z,50.908138
2022-12-20T04:01:27.303Z,50.908211
2022-12-20T04:02:27.393Z,50.908188
2022-12-20T04:03:27.206Z,50.908245
2022-12-20T04:04:27.150Z,50.908161
2022-12-20T04:05:27.165Z,50.908150
2022-12-20T04:06:27.160Z,50.908138
2022-12-20T04:07:28.133Z,50.908115
2022-12-20T04:08:27.127Z,50.908134
2022-12-20T04:09:27.118Z,50.908115
2022-12-20T04:10:27.115Z,50.908115
2022-12-20T04:11:27.122Z,50.908127
2022-12-20T04:12:27.097Z,50.908119
2022-12-20T04:13:27.084Z,50.908134
2022-12-20T04:14:27.089Z,50.908112
2022-12-20T04:15:27.105Z,50.908100
2022-12-20T04:16:27.240Z,50.908092
2022-12-20T04:17:27.056Z,50.908131
2022-12-20T04:18:27.047Z,50.908230
2022-12-20T04:19:27.039Z,50.908119
2022-12-20T04:20:27.032Z,50.908115
2022-12-20T04:21:27.052Z,50.908039
2022-12-20T04:22:27.024Z,50.908215
2022-12-20T04:23:27.010Z,50.908142
2022-12-20T04:24:27.003Z,50.908073
2022-12-20T04:25:27.001Z,50.908115
2022-12-20T04:26:27.014Z,50.908142
2022-12-20T04:27:26.985Z,50.908195
2022-12-20T04:28:26.971Z,50.908100
2022-12-20T04:29:26.973Z,50.908112
2022-12-20T04:30:26.967Z,50.908108
2022-12-20T04:31:27.053Z,50.908131
2022-12-20T04:32:26.947Z,50.908123
2022-12-20T04:33:26.937Z,50.908092
2022-12-20T04:34:26.931Z,50.908154
2022-12-20T04:35:26.934Z,50.908146
2022-12-20T04:36:26.943Z,50.908062
2022-12-20T04:37:26.909Z,50.908089
2022-12-20T04:38:26.907Z,50.908112
2022-12-20T04:39:26.899Z,50.908081
2022-12-20T04:40:26.885Z,50.908043
2022-12-20T04:41:26.861Z,50.908092
2022-12-20T04:42:27.895Z,50.908104
2022-12-20T04:43:26.864Z,50.908150
2022-12-20T04:44:26.856Z,50.908108
2022-12-20T04:45:26.852Z,50.908092
2022-12-20T04:46:26.886Z,50.908077
2022-12-20T04:47:26.859Z,50.908134
2022-12-20T04:49:28.816Z,50.908119
2022-12-20T04:50:26.810Z,50.908142
2022-12-20T04:51:26.814Z,50.908195
2022-12-20T04:52:26.813Z,50.908134
2022-12-20T04:53:26.784Z,50.908081
2022-12-20T04:54:26.772Z,50.908085
2022-12-20T04:55:26.789Z,50.908112
2022-12-20T04:56:26.758Z,50.908115
2022-12-20T04:57:26.781Z,50.908104
2022-12-20T04:58:26.767Z,50.908115
2022-12-20T04:59:26.741Z,50.908073
2022-12-20T05:00:26.730Z,50.908100
2022-12-20T05:01:26.829Z,50.908123
2022-12-20T05:02:26.822Z,50.908115
2022-12-20T05:03:26.765Z,50.908154
2022-12-20T05:04:31.592Z,50.908154
2022-12-20T05:05:27.694Z,50.908154
2022-12-20T05:06:26.685Z,50.908138
2022-12-20T05:07:26.701Z,50.908150
2022-12-20T05:08:26.670Z,50.908142
2022-12-20T05:09:26.664Z,50.908146
2022-12-20T05:10:26.660Z,50.908123
2022-12-20T05:11:26.642Z,50.908104
2022-12-20T05:12:26.664Z,50.908264
2022-12-20T05:13:26.631Z,50.908279
2022-12-20T05:14:26.624Z,50.908173
2022-12-20T05:15:26.614Z,50.908165
2022-12-20T05:16:26.636Z,50.908173
2022-12-20T05:17:26.625Z,50.908150
2022-12-20T05:18:26.591Z,50.908226
2022-12-20T05:19:26.587Z,50.908123
2022-12-20T05:20:26.575Z,50.908146
2022-12-20T05:21:26.582Z,50.908176
2022-12-20T05:22:26.585Z,50.908150
2022-12-20T05:23:26.552Z,50.908215
2022-12-20T05:24:26.547Z,50.908169
2022-12-20T05:25:26.565Z,50.908108
2022-12-20T05:26:26.533Z,50.908161
2022-12-20T05:27:26.556Z,50.908173
2022-12-20T05:28:26.513Z,50.908123
2022-12-20T05:29:26.505Z,50.908142
2022-12-20T05:30:26.498Z,50.908127
2022-12-20T05:31:26.521Z,50.908134
2022-12-20T05:32:26.519Z,50.908180
2022-12-20T05:33:32.098Z,50.908146
2022-12-20T05:34:28.466Z,50.908176
2022-12-20T05:35:26.469Z,50.908169
2022-12-20T05:36:26.453Z,50.908161
2022-12-20T05:37:26.475Z,50.908173
2022-12-20T05:38:26.430Z,50.908199
2022-12-20T05:39:26.428Z,50.908161
2022-12-20T05:40:26.415Z,50.908138
2022-12-20T05:41:26.417Z,50.908195
2022-12-20T05:42:26.432Z,50.908165
2022-12-20T05:43:26.406Z,50.908112
2022-12-20T05:44:26.388Z,50.908180
2022-12-20T05:45:26.387Z,50.908165
2022-12-20T05:46:26.427Z,50.908161
2022-12-20T05:47:26.417Z,50.908180
2022-12-20T05:48:26.360Z,50.908157
2022-12-20T05:49:26.349Z,50.908180
2022-12-20T05:50:26.342Z,50.908184
2022-12-20T05:51:26.335Z,50.908211
2022-12-20T05:52:26.343Z,50.908070
2022-12-20T05:53:27.315Z,50.907982
2022-12-20T05:54:26.328Z,50.908058
2022-12-20T05:55:26.300Z,50.908115
2022-12-20T05:56:26.299Z,50.908096
2022-12-20T05:57:26.304Z,50.907848
2022-12-20T05:58:26.303Z,50.907963
2022-12-20T05:59:26.266Z,50.907928
2022-12-20T06:00:26.265Z,50.907970
2022-12-20T06:01:26.313Z,50.908016
2022-12-20T06:02:26.335Z,50.908035
2022-12-20T06:03:26.356Z,50.908031
2022-12-20T06:04:26.311Z,50.908012
2022-12-20T06:05:27.227Z,50.907948
2022-12-20T06:06:26.211Z,50.908035
2022-12-20T06:07:26.236Z,50.908085
2022-12-20T06:08:26.207Z,50.908096
2022-12-20T06:09:26.193Z,50.908020
2022-12-20T06:10:26.189Z,50.908020
2022-12-20T06:11:30.154Z,50.908070
2022-12-20T06:12:27.215Z,50.908146
2022-12-20T06:13:26.160Z,50.908157
2022-12-20T06:14:26.159Z,50.907913
2022-12-20T06:15:26.152Z,50.907925
2022-12-20T06:16:26.214Z,50.908085
2022-12-20T06:17:26.150Z,50.908001
2022-12-20T06:18:26.123Z,50.908039
2022-12-20T06:19:26.131Z,50.908016
2022-12-20T06:20:26.116Z,50.908047
2022-12-20T06:21:26.111Z,50.907898
2022-12-20T06:22:26.132Z,50.908134
2022-12-20T06:23:26.094Z,50.908115
2022-12-20T06:24:26.072Z,50.908127
2022-12-20T06:25:27.068Z,50.908241
2022-12-20T06:26:26.080Z,50.908009
2022-12-20T06:27:26.104Z,50.908089
2022-12-20T06:28:26.047Z,50.908020
2022-12-20T06:29:26.043Z,50.908058
2022-12-20T06:30:31.911Z,50.908142
2022-12-20T06:31:28.061Z,50.908123
2022-12-20T06:32:26.024Z,50.908108
2022-12-20T06:33:26.046Z,50.908154
2022-12-20T06:34:25.995Z,50.908142
2022-12-20T06:35:25.991Z,50.908211
2022-12-20T06:36:25.980Z,50.908031
2022-12-20T06:37:25.973Z,50.908020
2022-12-20T06:38:25.989Z,50.908119
2022-12-20T06:39:25.961Z,50.908081
2022-12-20T06:40:25.944Z,50.908108
2022-12-20T06:41:25.942Z,50.908012
2022-12-20T06:42:25.931Z,50.908077
2022-12-20T06:43:25.951Z,50.908127
2022-12-20T06:44:25.923Z,50.908073
2022-12-20T06:45:25.955Z,50.907982
2022-12-20T06:46:26.027Z,50.908066
2022-12-20T06:47:25.890Z,50.908127
2022-12-20T06:48:25.911Z,50.908062
2022-12-20T06:49:25.875Z,50.908195
2022-12-20T06:50:25.870Z,50.908104
2022-12-20T06:51:25.856Z,50.908100
2022-12-20T06:52:25.940Z,50.908131
2022-12-20T06:53:25.869Z,50.908123
2022-12-20T06:54:25.833Z,50.908131
2022-12-20T06:55:25.859Z,50.908131
2022-12-20T06:56:25.822Z,50.908146
2022-12-20T06:57:25.816Z,50.908108
2022-12-20T06:58:25.828Z,50.908077
2022-12-20T06:59:26.030Z,50.908066
2022-12-20T07:00:25.793Z,50.908058
2022-12-20T07:01:25.920Z,50.908100
2022-12-20T07:02:27.932Z,50.908108
2022-12-20T07:03:26.931Z,50.908054
2022-12-20T07:04:25.765Z,50.908115
2022-12-20T07:05:25.754Z,50.908127
2022-12-20T07:06:25.752Z,50.908154
2022-12-20T07:07:25.736Z,50.908184
2022-12-20T07:08:25.754Z,50.908123
2022-12-20T07:09:25.716Z,50.908073
2022-12-20T07:10:25.716Z,50.908108
2022-12-20T07:11:25.709Z,50.908108
2022-12-20T07:12:25.698Z,50.908161
2022-12-20T07:13:26.116Z,50.908157
2022-12-20T07:14:25.682Z,50.908154
2022-12-20T07:15:25.682Z,50.908123
2022-12-20T07:16:25.695Z,50.908108
2022-12-20T07:17:25.664Z,50.908161
2022-12-20T07:18:25.695Z,50.908192
2022-12-20T07:19:25.645Z,50.908157
2022-12-20T07:20:25.656Z,50.908131
2022-12-20T07:21:25.625Z,50.908165
2022-12-20T07:22:25.617Z,50.908112
2022-12-20T07:23:25.643Z,50.908104
2022-12-20T07:24:25.602Z,50.908104
2022-12-20T07:25:25.609Z,50.908119
2022-12-20T07:26:25.604Z,50.908157
2022-12-20T07:27:25.588Z,50.908215
2022-12-20T07:28:26.046Z,50.908134
2022-12-20T07:29:25.566Z,50.908218
2022-12-20T07:30:25.550Z,50.908195
2022-12-20T07:31:26.640Z,50.908226
2022-12-20T07:32:25.621Z,50.908192
2022-12-20T07:33:25.554Z,50.908176
2022-12-20T07:34:25.528Z,50.908165
2022-12-20T07:35:25.515Z,50.908180
2022-12-20T07:36:25.515Z,50.908169
2022-12-20T07:37:25.497Z,50.908203
2022-12-20T07:38:25.520Z,50.908180
2022-12-20T07:39:25.485Z,50.908222
2022-12-20T07:40:25.494Z,50.908203
2022-12-20T07:41:25.470Z,50.908192
2022-12-20T07:42:33.644Z,50.908165
2022-12-20T07:43:27.478Z,50.908165
2022-12-20T07:44:25.467Z,50.908188
2022-12-20T07:45:25.438Z,50.908188
2022-12-20T07:46:25.521Z,50.908211
2022-12-20T07:47:25.427Z,50.908218
2022-12-20T07:48:25.445Z,50.908188
2022-12-20T07:49:25.417Z,50.908154
2022-12-20T07:50:25.398Z,50.908222
2022-12-20T07:51:25.400Z,50.908192
2022-12-20T07:52:25.388Z,50.908150
2022-12-20T07:53:25.407Z,50.908203
2022-12-20T07:54:25.377Z,50.908154
2022-12-20T07:55:25.372Z,50.908134
2022-12-20T07:56:25.359Z,50.908092
2022-12-20T07:57:25.350Z,50.908199
2022-12-20T07:58:25.371Z,50.908180
2022-12-20T07:59:25.343Z,50.908226
2022-12-20T08:00:25.334Z,50.908215
2022-12-20T08:01:25.475Z,50.908199
2022-12-20T08:02:26.450Z,50.908176
2022-12-20T08:03:25.515Z,50.908195
2022-12-20T08:04:25.303Z,50.908150
2022-12-20T08:05:25.297Z,50.908161
2022-12-20T08:06:25.285Z,50.908085
2022-12-20T08:07:25.271Z,50.908154
2022-12-20T08:08:25.293Z,50.908142
2022-12-20T08:09:25.261Z,50.908207
2022-12-20T08:10:25.256Z,50.908222
2022-12-20T08:11:25.248Z,50.908173
2022-12-20T08:12:25.242Z,50.908165
2022-12-20T08:13:25.261Z,50.908150
2022-12-20T08:14:25.251Z,50.908180
2022-12-20T08:15:25.245Z,50.908157
2022-12-20T08:16:25.293Z,50.908142
2022-12-20T08:17:25.201Z,50.908154
2022-12-20T08:18:25.220Z,50.908123
2022-12-20T08:19:31.853Z,50.908154
2022-12-20T08:20:27.194Z,50.908165
2022-12-20T08:21:25.180Z,50.908184
2022-12-20T08:22:25.164Z,50.908199
2022-12-20T08:23:25.187Z,50.908142
2022-12-20T08:24:25.160Z,50.908161
2022-12-20T08:25:25.149Z,50.908173
2022-12-20T08:26:25.135Z,50.908123
2022-12-20T08:27:25.157Z,50.908180
2022-12-20T08:28:25.146Z,50.908192
2022-12-20T08:29:25.117Z,50.908073
2022-12-20T08:30:25.130Z,50.908203
2022-12-20T08:31:25.177Z,50.908176
2022-12-20T08:32:25.092Z,50.908138
2022-12-20T08:33:25.133Z,50.908150
2022-12-20T08:34:25.097Z,50.908127
2022-12-20T08:35:25.095Z,50.908100
2022-12-20T08:36:25.052Z,50.908192
2022-12-20T08:37:26.065Z,50.908195
2022-12-20T08:38:25.048Z,50.908192
2022-12-20T08:39:25.069Z,50.908249
2022-12-20T08:40:25.049Z,50.908283
2022-12-20T08:41:25.023Z,50.908184
2022-12-20T08:42:25.023Z,50.908089
2022-12-20T08:43:24.996Z,50.908070
2022-12-20T08:44:26.067Z,50.908096
2022-12-20T08:45:24.995Z,50.908192
2022-12-20T08:46:25.098Z,50.908165
2022-12-20T08:47:25.001Z,50.908493
2022-12-20T08:48:24.968Z,50.908287
2022-12-20T08:49:24.992Z,50.908192
2022-12-20T08:50:24.981Z,50.908211
2022-12-20T08:51:25.015Z,50.908096
2022-12-20T08:52:24.938Z,50.908329
2022-12-20T08:53:24.935Z,50.908215
2022-12-20T08:54:24.953Z,50.908192
2022-12-20T08:55:27.943Z,50.908169
2022-12-20T08:56:25.905Z,50.908340
2022-12-20T08:57:24.902Z,50.908360
2022-12-20T08:58:24.895Z,50.908157
2022-12-20T08:59:24.907Z,50.908165
2022-12-20T09:00:24.963Z,50.908173
2022-12-20T09:01:25.026Z,50.908241
2022-12-20T09:02:24.983Z,50.908222
2022-12-20T09:03:24.895Z,50.908237
2022-12-20T09:04:24.874Z,50.908127
2022-12-20T09:05:24.856Z,50.908161
2022-12-20T09:06:24.850Z,50.908154
2022-12-20T09:07:24.828Z,50.908138
2022-12-20T09:08:24.824Z,50.908009
2022-12-20T09:09:24.832Z,50.908108
2022-12-20T09:10:24.807Z,50.908104
2022-12-20T09:11:24.800Z,50.908047
2022-12-20T09:12:24.779Z,50.908031
2022-12-20T09:13:24.782Z,50.908215
2022-12-20T09:14:24.792Z,50.908379
2022-12-20T09:15:24.796Z,50.908428
2022-12-20T09:16:24.798Z,50.908287
2022-12-20T09:17:24.776Z,50.908401
2022-12-20T09:18:24.738Z,50.908401
2022-12-20T09:19:24.765Z,50.908482
2022-12-20T09:20:24.812Z,50.908138
2022-12-20T09:21:24.718Z,50.908138
2022-12-20T09:22:24.706Z,50.908138
2022-12-20T09:23:24.728Z,50.908291
2022-12-20T09:24:24.715Z,50.908234
2022-12-20T09:25:24.685Z,50.908195
2022-12-20T09:26:24.689Z,50.908192
2022-12-20T09:27:24.675Z,50.908260
2022-12-20T09:28:24.663Z,50.908295
2022-12-20T09:29:28.459Z,50.908279
2022-12-20T09:30:26.650Z,50.908279
2022-12-20T09:31:24.706Z,50.908382
2022-12-20T09:32:24.632Z,50.908001
2022-12-20T09:33:24.630Z,50.908131
2022-12-20T09:34:24.643Z,50.908184
2022-12-20T09:35:24.608Z,50.908112
2022-12-20T09:36:24.603Z,50.907986
2022-12-20T09:37:24.612Z,50.908283
2022-12-20T09:38:24.608Z,50.908215
2022-12-20T09:39:24.678Z,50.908161
2022-12-20T09:40:24.663Z,50.908161
2022-12-20T09:41:24.564Z,50.908199
2022-12-20T09:42:24.563Z,50.908157
2022-12-20T09:43:24.551Z,50.908188
2022-12-20T09:44:24.571Z,50.908192
2022-12-20T09:45:24.533Z,50.908184
2022-12-20T09:46:24.551Z,50.908112
2022-12-20T09:47:24.519Z,50.908192
2022-12-20T09:48:24.513Z,50.908195
2022-12-20T09:49:24.533Z,50.908207
2022-12-20T09:50:24.553Z,50.908161
2022-12-20T09:51:24.489Z,50.908104
2022-12-20T09:52:24.479Z,50.908165
2022-12-20T09:53:24.466Z,50.908142
2022-12-20T09:54:24.496Z,50.908077
2022-12-20T09:55:24.458Z,50.908112
2022-12-20T09:56:24.460Z,50.908123
2022-12-20T09:57:24.447Z,50.908134
2022-12-20T09:58:24.432Z,50.908096
2022-12-20T09:59:24.432Z,50.908100
2022-12-20T10:00:24.565Z,50.908077
2022-12-20T10:01:25.738Z,50.908108
2022-12-20T10:03:26.634Z,50.908108
2022-12-20T10:04:24.597Z,50.908096
2022-12-20T10:05:24.518Z,50.908096
2022-12-20T10:06:24.371Z,50.908070
2022-12-20T10:07:24.362Z,50.908112
2022-12-20T10:08:24.379Z,50.908104
2022-12-20T10:09:24.365Z,50.908100
2022-12-20T10:10:24.365Z,50.908092
2022-12-20T10:11:24.336Z,50.908073
2022-12-20T10:12:24.346Z,50.908066
2022-12-20T10:13:24.324Z,50.908073
2022-12-20T10:14:24.306Z,50.908081
2022-12-20T10:15:24.332Z,50.908066
2022-12-20T10:16:24.332Z,50.908070
2022-12-20T10:17:30.538Z,50.908104
2022-12-20T10:18:26.292Z,50.908104
2022-12-20T10:19:24.273Z,50.908112
2022-12-20T10:20:24.367Z,50.908104
2022-12-20T10:21:24.265Z,50.908051
2022-12-20T10:22:24.248Z,50.908051
2022-12-20T10:23:30.953Z,50.908073
2022-12-20T10:24:26.239Z,50.907959
2022-12-20T10:25:24.248Z,50.908001
2022-12-20T10:26:24.222Z,50.908070
2022-12-20T10:27:24.207Z,50.908085
2022-12-20T10:28:24.210Z,50.908089
2022-12-20T10:29:24.193Z,50.908077
2022-12-20T10:30:24.245Z,50.908058
2022-12-20T10:31:24.293Z,50.908070
2022-12-20T10:32:24.167Z,50.908092
2022-12-20T10:33:24.180Z,50.908092
2022-12-20T10:34:24.161Z,50.908085
2022-12-20T10:35:24.177Z,50.908081
2022-12-20T10:36:24.175Z,50.908073
2022-12-20T10:37:24.138Z,50.908051
2022-12-20T10:38:24.126Z,50.908108
2022-12-20T10:39:24.119Z,50.908104
2022-12-20T10:40:30.460Z,50.908108
2022-12-20T10:41:25.098Z,50.908115
2022-12-20T10:42:24.134Z,50.908119
2022-12-20T10:43:24.103Z,50.908115
2022-12-20T10:44:24.082Z,50.908058
2022-12-20T10:45:24.096Z,50.908092
2022-12-20T10:46:24.129Z,50.908112
2022-12-20T10:47:24.053Z,50.908081
2022-12-20T10:48:24.066Z,50.908104
2022-12-20T10:49:24.045Z,50.908100
2022-12-20T10:50:24.048Z,50.908089
2022-12-20T10:51:24.061Z,50.908096
2022-12-20T10:52:24.015Z,50.908119
2022-12-20T10:53:24.015Z,50.908104
2022-12-20T10:54:24.014Z,50.908127
2022-12-20T10:55:23.996Z,50.908112
2022-12-20T10:56:24.008Z,50.908138
2022-12-20T10:57:23.976Z,50.908119
2022-12-20T10:58:23.967Z,50.908123
2022-12-20T10:59:23.961Z,50.908081
2022-12-20T11:00:23.947Z,50.908096
2022-12-20T11:01:24.003Z,50.908100
2022-12-20T11:02:24.050Z,50.908104
2022-12-20T11:03:24.094Z,50.908089
2022-12-20T11:04:23.966Z,50.908123
2022-12-20T11:05:23.924Z,50.908154
2022-12-20T11:06:23.922Z,50.908157
2022-12-20T11:07:23.902Z,50.908127
2022-12-20T11:08:37.576Z,50.908138
2022-12-20T11:09:25.889Z,50.908131
2022-12-20T11:10:23.891Z,50.908176
2022-12-20T11:11:23.892Z,50.908047
2022-12-20T11:12:23.853Z,50.908115
2022-12-20T11:13:23.855Z,50.908131
2022-12-20T11:14:23.831Z,50.908112
2022-12-20T11:15:34.349Z,50.908127
2022-12-20T11:16:24.892Z,50.908131
2022-12-20T11:17:23.816Z,50.908142
2022-12-20T11:18:23.807Z,50.908100
2022-12-20T11:19:23.805Z,50.908165
2022-12-20T11:20:23.793Z,50.908115
2022-12-20T11:21:28.104Z,50.908134
2022-12-20T11:22:24.783Z,50.908131
2022-12-20T11:23:23.764Z,50.908138
2022-12-20T11:24:23.752Z,50.908127
2022-12-20T11:25:23.756Z,50.908112
2022-12-20T11:26:23.772Z,50.908165